Littleton, New Hampshire
Current Conditions -  °F | °C
As of 2:52 AM on Sunday 26 Oct 2014 (Local Time) from KHIE Reporting Station
Broken Clouds Broken Clouds  
Wind Chill: 42°   Ceiling: 8500
Heat Index: 44°   Visibility: 10mi
Dew Point: 42°   Wind: 5mph
Humidity: 93%   Direction: 240°WSW
Pressure: 29.4"   Gusts: NA
Location:  44.31°N, 71.77°W
Report Text: KHIE 260652Z AUTO 24004KT 10SM BKN085 07/06 A2940 RMK AO2 SLP960 T00670056
Loading
Personal Weather Stations






























Interactive Weather Map
Tropical Storm Tracking
New forecast layout! Learn more

10-Day Weather Forecast

Advertisements
Track Severe Weather on mobile